Time;durP1;ratioP1;P1;durP2;ratioP2;P2;SDS_P1;SDS_P2;PMS_P1;PMS_P2;Temp;Humidity;BMP_temperature;BMP_pressure;BME280_temperature;BME280_humidity;BME280_pressure;Samples;Min_cycle;Max_cycle;Signal;HPM_P1;HPM_P2
2022/01/17 00:00:15;;;;;;;24.63;15.77;;;;;;;;;;5056698;28;20036;-75
2022/01/17 00:02:42;;;;;;;26.45;17.45;;;;;;;;;;5057294;28;20048;-75
2022/01/17 00:05:09;;;;;;;28.35;18.15;;;;;;;;;;5056526;28;20048;-74
2022/01/17 00:07:35;;;;;;;24.23;16.38;;;;;;;;;;5056650;28;20037;-74
2022/01/17 00:10:01;;;;;;;23.27;15.65;;;;;;;;;;5056893;28;20043;-74
2022/01/17 00:12:30;;;;;;;27.70;16.58;;;;;;;;;;5056567;28;20044;-74
2022/01/17 00:14:57;;;;;;;21.67;15.48;;;;;;;;;;5056566;28;20049;-75
2022/01/17 00:17:37;;;;;;;21.92;14.73;;;;;;;;;;5056715;28;20087;-74
2022/01/17 00:20:11;;;;;;;24.33;15.25;;;;;;;;;;5055963;28;20048;-75
2022/01/17 00:22:40;;;;;;;20.38;14.57;;;;;;;;;;5057514;28;20029;-75
2022/01/17 00:25:07;;;;;;;21.33;14.27;;;;;;;;;;5056461;28;20045;-75
2022/01/17 00:27:33;;;;;;;22.73;15.18;;;;;;;;;;5056864;28;20024;-75
2022/01/17 00:30:02;;;;;;;20.13;13.75;;;;;;;;;;5056526;28;20037;-75
2022/01/17 00:32:29;;;;;;;20.35;14.02;;;;;;;;;;5056409;28;20053;-75
2022/01/17 00:34:56;;;;;;;18.98;13.85;;;;;;;;;;5055861;28;20041;-75
2022/01/17 00:37:22;;;;;;;21.58;14.85;;;;;;;;;;5056930;28;20036;-75
2022/01/17 00:39:48;;;;;;;21.60;13.27;;;;;;;;;;5056580;28;20123;-75
2022/01/17 00:42:14;;;;;;;22.98;13.93;;;;;;;;;;5056274;28;20024;-75
2022/01/17 00:44:41;;;;;;;18.75;12.77;;;;;;;;;;5056175;28;20040;-75
2022/01/17 00:47:07;;;;;;;18.33;12.20;;;;;;;;;;5056417;28;20033;-75
2022/01/17 00:49:34;;;;;;;16.23;11.55;;;;;;;;;;5056121;28;20052;-74
2022/01/17 00:52:00;;;;;;;21.50;13.00;;;;;;;;;;5055881;28;20043;-74
2022/01/17 00:54:28;;;;;;;19.95;12.27;;;;;;;;;;5055658;28;20526;-75
2022/01/17 00:56:54;;;;;;;18.40;11.88;;;;;;;;;;5055672;28;20028;-74
2022/01/17 00:59:20;;;;;;;15.25;11.07;;;;;;;;;;5056136;28;20115;-76
2022/01/17 01:01:46;;;;;;;15.70;11.70;;;;;;;;;;5055630;28;20120;-75
2022/01/17 01:04:12;;;;;;;17.83;12.75;;;;;;;;;;5055675;28;20048;-75
2022/01/17 01:06:38;;;;;;;16.52;11.95;;;;;;;;;;5056123;28;20036;-74
2022/01/17 01:09:05;;;;;;;18.48;13.10;;;;;;;;;;5055488;28;20037;-74
2022/01/17 01:11:31;;;;;;;17.85;12.10;;;;;;;;;;5055769;28;20072;-75
2022/01/17 01:13:57;;;;;;;16.50;12.60;;;;;;;;;;5055202;28;20041;-74
2022/01/17 01:16:31;;;;;;;18.13;12.13;;;;;;;;;;5055355;28;20037;-74
2022/01/17 01:21:47;;;;;;;18.08;12.43;;;;;;;;;;5055251;28;20537;-75
2022/01/17 01:27:41;;;;;;;19.52;13.40;;;;;;;;;;5055215;28;20087;-74
2022/01/17 01:29:59;;;;;;;20.20;13.80;;;;;;;;;;5055076;28;20120;-75
2022/01/17 01:32:34;;;;;;;20.50;13.20;;;;;;;;;;5054811;28;20095;-74
2022/01/17 01:35:01;;;;;;;18.92;13.80;;;;;;;;;;5055003;28;20052;-75
2022/01/17 01:37:28;;;;;;;22.92;14.27;;;;;;;;;;5055527;28;20119;-75
2022/01/17 01:39:55;;;;;;;19.48;13.70;;;;;;;;;;5054358;28;20540;-75
2022/01/17 01:42:23;;;;;;;19.05;13.48;;;;;;;;;;5054922;28;20534;-74
2022/01/17 01:44:51;;;;;;;17.85;12.63;;;;;;;;;;5054105;28;20037;-75
2022/01/17 01:47:20;;;;;;;18.20;12.15;;;;;;;;;;5054825;28;20086;-75
2022/01/17 01:49:46;;;;;;;19.85;12.73;;;;;;;;;;5054817;28;20492;-75
2022/01/17 01:52:12;;;;;;;19.48;12.88;;;;;;;;;;5054735;28;20040;-75
2022/01/17 01:54:38;;;;;;;18.77;12.32;;;;;;;;;;5054614;28;20037;-75
2022/01/17 01:57:05;;;;;;;17.67;11.45;;;;;;;;;;5054549;28;20033;-75
2022/01/17 01:59:31;;;;;;;16.17;11.75;;;;;;;;;;5054589;28;20040;-74
2022/01/17 02:01:57;;;;;;;18.27;12.80;;;;;;;;;;5054494;28;20048;-75
2022/01/17 02:04:23;;;;;;;25.80;16.50;;;;;;;;;;5054424;28;20041;-76
2022/01/17 02:06:51;;;;;;;20.63;13.63;;;;;;;;;;5054828;28;20112;-75
2022/01/17 02:09:17;;;;;;;19.33;12.88;;;;;;;;;;5054709;28;20083;-75
2022/01/17 02:11:43;;;;;;;20.88;13.13;;;;;;;;;;5054242;28;20048;-75
2022/01/17 02:14:09;;;;;;;27.48;15.45;;;;;;;;;;5054472;28;20106;-75
2022/01/17 02:16:38;;;;;;;23.20;13.60;;;;;;;;;;5054438;28;20548;-75
2022/01/17 02:19:04;;;;;;;20.83;13.43;;;;;;;;;;5054878;28;20090;-74
2022/01/17 02:21:46;;;;;;;22.05;14.27;;;;;;;;;;5054930;28;20025;-75
2022/01/17 02:24:16;;;;;;;21.25;14.90;;;;;;;;;;5054666;28;20080;-75
2022/01/17 02:26:43;;;;;;;21.55;14.02;;;;;;;;;;5054404;28;20037;-74
2022/01/17 02:29:09;;;;;;;21.40;13.55;;;;;;;;;;5055112;28;20116;-75
2022/01/17 02:31:36;;;;;;;19.05;12.23;;;;;;;;;;5054395;28;20087;-74
2022/01/17 02:34:03;;;;;;;23.45;13.95;;;;;;;;;;5054093;28;20052;-74
2022/01/17 02:36:30;;;;;;;20.67;13.38;;;;;;;;;;5054264;28;20029;-74
2022/01/17 02:38:56;;;;;;;21.30;13.43;;;;;;;;;;5054687;28;20048;-75
2022/01/17 02:41:22;;;;;;;24.95;15.82;;;;;;;;;;5054820;28;20072;-74
2022/01/17 02:43:48;;;;;;;29.60;18.73;;;;;;;;;;5054205;28;20375;-75
2022/01/17 02:46:26;;;;;;;32.33;18.77;;;;;;;;;;5054541;28;20037;-75
2022/01/17 02:48:53;;;;;;;27.17;17.50;;;;;;;;;;5054684;28;20099;-74
2022/01/17 02:51:19;;;;;;;16.50;10.45;;;;;;;;;;5054762;28;20045;-75
2022/01/17 02:53:45;;;;;;;24.52;14.85;;;;;;;;;;5054341;28;20423;-75
2022/01/17 02:56:12;;;;;;;22.63;14.02;;;;;;;;;;5054930;28;20029;-75
2022/01/17 02:58:40;;;;;;;18.75;11.65;;;;;;;;;;5057917;28;20033;-75
2022/01/17 03:01:14;;;;;;;16.55;10.50;;;;;;;;;;5057937;28;20120;-75
2022/01/17 03:03:42;;;;;;;14.82;9.60;;;;;;;;;;5057946;28;20048;-74
2022/01/17 03:06:08;;;;;;;14.15;9.55;;;;;;;;;;5058083;28;20106;-75
2022/01/17 03:08:35;;;;;;;16.77;10.60;;;;;;;;;;5058069;28;20033;-75
2022/01/17 03:11:05;;;;;;;16.95;10.98;;;;;;;;;;5058657;28;20078;-75
2022/01/17 03:13:32;;;;;;;15.95;10.70;;;;;;;;;;5057401;28;20056;-74
2022/01/17 03:16:00;;;;;;;14.40;9.48;;;;;;;;;;5057628;28;20049;-75
2022/01/17 03:18:30;;;;;;;14.95;10.10;;;;;;;;;;5057384;28;20479;-74
2022/01/17 03:20:56;;;;;;;14.85;10.15;;;;;;;;;;5057609;28;20095;-74
2022/01/17 03:23:23;;;;;;;14.93;10.20;;;;;;;;;;5057823;28;20075;-75
2022/01/17 03:25:49;;;;;;;15.18;9.40;;;;;;;;;;5057205;28;20128;-75
2022/01/17 03:28:15;;;;;;;12.40;8.95;;;;;;;;;;5057473;28;20036;-75
2022/01/17 03:30:42;;;;;;;17.75;10.40;;;;;;;;;;5057513;28;20037;-75
2022/01/17 03:33:09;;;;;;;17.08;10.73;;;;;;;;;;5057183;28;20068;-74
2022/01/17 03:35:38;;;;;;;17.70;10.90;;;;;;;;;;5056941;28;20051;-75
2022/01/17 03:38:05;;;;;;;17.17;10.90;;;;;;;;;;5056882;28;20078;-75
2022/01/17 03:40:31;;;;;;;17.30;10.30;;;;;;;;;;5056943;28;20392;-75
2022/01/17 03:42:57;;;;;;;15.43;10.20;;;;;;;;;;5057702;28;20044;-75
2022/01/17 03:45:23;;;;;;;13.80;10.00;;;;;;;;;;5057079;28;20047;-74
2022/01/17 03:47:50;;;;;;;15.95;10.82;;;;;;;;;;5057064;28;20039;-75
2022/01/17 03:50:17;;;;;;;15.38;10.68;;;;;;;;;;5056854;28;20157;-75
2022/01/17 03:52:43;;;;;;;16.10;10.65;;;;;;;;;;5056679;28;20413;-74
2022/01/17 03:55:11;;;;;;;18.17;11.13;;;;;;;;;;5056939;28;20554;-75
2022/01/17 03:57:37;;;;;;;14.70;10.63;;;;;;;;;;5056841;28;20041;-75
2022/01/17 04:00:08;;;;;;;19.05;12.02;;;;;;;;;;5056538;28;20048;-75
2022/01/17 04:02:34;;;;;;;16.45;11.05;;;;;;;;;;5056795;28;20036;-75
2022/01/17 04:05:01;;;;;;;15.43;10.15;;;;;;;;;;5056205;28;20037;-75
2022/01/17 04:07:27;;;;;;;15.80;10.85;;;;;;;;;;5056052;28;20119;-75
2022/01/17 04:09:53;;;;;;;13.18;10.43;;;;;;;;;;5056972;28;20045;-75
2022/01/17 04:12:19;;;;;;;17.17;11.25;;;;;;;;;;5056596;28;20033;-75
2022/01/17 04:14:45;;;;;;;16.48;11.48;;;;;;;;;;5056729;28;20109;-75
2022/01/17 04:17:11;;;;;;;17.10;10.93;;;;;;;;;;5056510;28;20350;-75
2022/01/17 04:19:37;;;;;;;17.85;11.02;;;;;;;;;;5056763;28;20041;-74
2022/01/17 04:22:04;;;;;;;19.13;11.18;;;;;;;;;;5057011;28;20071;-75
2022/01/17 04:24:30;;;;;;;16.88;10.88;;;;;;;;;;5056318;28;20033;-75
2022/01/17 04:26:56;;;;;;;16.10;10.95;;;;;;;;;;5056746;28;20041;-74
2022/01/17 04:29:23;;;;;;;15.88;10.98;;;;;;;;;;5057034;28;20063;-75
2022/01/17 04:31:49;;;;;;;17.38;11.43;;;;;;;;;;5056552;28;20039;-74
2022/01/17 04:34:15;;;;;;;18.40;10.85;;;;;;;;;;5056667;28;20049;-74
2022/01/17 04:36:41;;;;;;;17.45;11.18;;;;;;;;;;5056459;28;20032;-75
2022/01/17 04:39:09;;;;;;;18.20;11.85;;;;;;;;;;5056910;28;20075;-75
2022/01/17 04:41:39;;;;;;;17.70;11.75;;;;;;;;;;5056306;28;20029;-74
2022/01/17 04:47:03;;;;;;;16.70;10.70;;;;;;;;;;5043597;28;20033;-75
2022/01/17 04:49:30;;;;;;;14.98;10.52;;;;;;;;;;5055908;28;20479;-75
2022/01/17 04:51:56;;;;;;;20.85;12.75;;;;;;;;;;5056441;28;20499;-75
2022/01/17 04:54:42;;;;;;;17.70;11.65;;;;;;;;;;5056026;28;20491;-74
2022/01/17 04:57:09;;;;;;;14.50;10.75;;;;;;;;;;5055735;28;20093;-74
2022/01/17 04:59:36;;;;;;;18.60;11.88;;;;;;;;;;5056138;28;20044;-75
2022/01/17 05:02:02;;;;;;;21.85;13.48;;;;;;;;;;5055904;28;20025;-75
2022/01/17 05:04:28;;;;;;;30.77;17.77;;;;;;;;;;5059527;28;20044;-74
2022/01/17 05:06:54;;;;;;;18.17;12.63;;;;;;;;;;5060354;28;20102;-74
2022/01/17 05:09:20;;;;;;;19.45;12.95;;;;;;;;;;5072916;28;20111;-74
2022/01/17 05:11:47;;;;;;;21.75;15.23;;;;;;;;;;5064884;28;20037;-74
2022/01/17 05:14:13;;;;;;;19.05;14.00;;;;;;;;;;5066091;28;20040;-74
2022/01/17 05:16:47;;;;;;;18.77;12.00;;;;;;;;;;5074380;28;20079;-75
2022/01/17 05:21:58;;;;;;;18.25;12.38;;;;;;;;;;5094577;28;20039;-75
2022/01/17 05:24:24;;;;;;;20.92;13.43;;;;;;;;;;5095015;28;20067;-73
2022/01/17 05:26:50;;;;;;;20.25;12.82;;;;;;;;;;5095169;28;20067;-75
2022/01/17 05:29:16;;;;;;;21.77;15.00;;;;;;;;;;5094960;28;20533;-74
2022/01/17 05:31:43;;;;;;;22.92;14.68;;;;;;;;;;5054765;28;20387;-74
2022/01/17 05:34:09;;;;;;;21.33;14.15;;;;;;;;;;5060012;28;20048;-73
2022/01/17 05:36:35;;;;;;;30.25;18.35;;;;;;;;;;5090715;28;20043;-70
2022/01/17 05:39:01;;;;;;;22.40;15.18;;;;;;;;;;5095262;28;20467;-72
2022/01/17 05:41:27;;;;;;;22.88;15.77;;;;;;;;;;5094928;28;20386;-72
2022/01/17 05:43:53;;;;;;;23.30;15.02;;;;;;;;;;5094868;28;20040;-72
2022/01/17 05:46:19;;;;;;;22.13;15.90;;;;;;;;;;5095151;28;20036;-72
2022/01/17 05:48:46;;;;;;;18.17;12.90;;;;;;;;;;5094766;28;20085;-72
2022/01/17 05:51:12;;;;;;;21.48;14.85;;;;;;;;;;5094785;28;20395;-72
2022/01/17 05:53:38;;;;;;;22.80;14.80;;;;;;;;;;5095112;28;20035;-72
2022/01/17 05:56:04;;;;;;;23.90;14.90;;;;;;;;;;5094656;28;20055;-72
2022/01/17 05:58:30;;;;;;;22.42;16.17;;;;;;;;;;5095454;28;20085;-72
2022/01/17 06:00:56;;;;;;;25.45;15.13;;;;;;;;;;5094981;28;20119;-72
2022/01/17 06:03:23;;;;;;;22.77;15.57;;;;;;;;;;5094908;28;20071;-72
2022/01/17 06:05:49;;;;;;;22.40;15.43;;;;;;;;;;5094869;28;20042;-72
2022/01/17 06:08:15;;;;;;;20.95;14.25;;;;;;;;;;5094835;28;20036;-72
2022/01/17 06:10:41;;;;;;;23.88;17.15;;;;;;;;;;5094906;28;20085;-72
2022/01/17 06:13:07;;;;;;;24.38;15.98;;;;;;;;;;5094292;28;20047;-72
2022/01/17 06:15:33;;;;;;;23.67;16.83;;;;;;;;;;5094807;28;20071;-72
2022/01/17 06:17:59;;;;;;;24.27;15.57;;;;;;;;;;5094901;28;20547;-72
2022/01/17 06:20:26;;;;;;;26.17;16.77;;;;;;;;;;5095609;28;20463;-72
2022/01/17 06:22:52;;;;;;;26.00;17.98;;;;;;;;;;5095014;28;20038;-72
2022/01/17 06:25:18;;;;;;;25.10;16.63;;;;;;;;;;5094707;28;20553;-72
2022/01/17 06:27:44;;;;;;;25.95;17.17;;;;;;;;;;5094665;28;20115;-72
2022/01/17 06:30:13;;;;;;;24.60;16.90;;;;;;;;;;5095767;28;20467;-72
2022/01/17 06:32:39;;;;;;;23.75;17.02;;;;;;;;;;5098745;28;20470;-72
2022/01/17 06:35:05;;;;;;;24.50;17.17;;;;;;;;;;5098836;28;20040;-72
2022/01/17 06:37:31;;;;;;;23.52;16.63;;;;;;;;;;5098953;28;20036;-72
2022/01/17 06:39:58;;;;;;;24.10;17.10;;;;;;;;;;5098349;28;20039;-72
2022/01/17 06:42:24;;;;;;;26.50;16.73;;;;;;;;;;5099494;28;20058;-72
2022/01/17 06:44:50;;;;;;;25.88;15.75;;;;;;;;;;5098818;28;20031;-72
2022/01/17 06:47:17;;;;;;;26.15;17.70;;;;;;;;;;5098578;28;20067;-72
2022/01/17 06:49:43;;;;;;;23.20;15.23;;;;;;;;;;5098475;28;20058;-72
2022/01/17 06:52:09;;;;;;;23.08;15.15;;;;;;;;;;5098493;28;20032;-72
2022/01/17 06:54:35;;;;;;;24.02;15.07;;;;;;;;;;5098647;28;20051;-72
2022/01/17 06:57:01;;;;;;;21.83;15.55;;;;;;;;;;5098555;28;20035;-72
2022/01/17 06:59:28;;;;;;;23.90;15.63;;;;;;;;;;5099201;28;20040;-72
2022/01/17 07:01:54;;;;;;;22.85;14.23;;;;;;;;;;5098844;28;20042;-72
2022/01/17 07:04:20;;;;;;;24.08;16.30;;;;;;;;;;5098459;28;20067;-72
2022/01/17 07:06:46;;;;;;;25.27;16.45;;;;;;;;;;5098491;28;20098;-72
2022/01/17 07:09:16;;;;;;;21.58;14.63;;;;;;;;;;5098914;28;20039;-72
2022/01/17 07:11:42;;;;;;;21.58;14.70;;;;;;;;;;5098052;28;20024;-72
2022/01/17 07:14:09;;;;;;;19.52;14.73;;;;;;;;;;5098030;28;20062;-72
2022/01/17 07:16:37;;;;;;;20.33;13.75;;;;;;;;;;5097970;28;20086;-72
2022/01/17 07:19:03;;;;;;;22.92;15.07;;;;;;;;;;5098370;28;20036;-72
2022/01/17 07:21:29;;;;;;;22.42;14.90;;;;;;;;;;5097881;28;20027;-72
2022/01/17 07:23:56;;;;;;;24.13;16.05;;;;;;;;;;5098095;28;20043;-72
2022/01/17 07:26:22;;;;;;;21.13;14.05;;;;;;;;;;5098371;28;20340;-72
2022/01/17 07:28:48;;;;;;;21.00;14.45;;;;;;;;;;5097969;28;20038;-72
2022/01/17 07:31:16;;;;;;;22.58;15.05;;;;;;;;;;5097755;28;20177;-72
2022/01/17 07:33:42;;;;;;;23.15;15.95;;;;;;;;;;5097520;28;20036;-72
2022/01/17 07:36:08;;;;;;;22.58;14.55;;;;;;;;;;5097925;28;20089;-72
2022/01/17 07:38:35;;;;;;;25.20;15.65;;;;;;;;;;5097884;28;20035;-72
2022/01/17 07:41:02;;;;;;;20.23;13.90;;;;;;;;;;5098114;28;20039;-72
2022/01/17 07:43:28;;;;;;;21.45;14.73;;;;;;;;;;5096748;28;20047;-72
2022/01/17 07:46:06;;;;;;;23.42;15.88;;;;;;;;;;5097058;28;20483;-72
2022/01/17 07:51:00;;;;;;;19.63;13.63;;;;;;;;;;5097069;28;20028;-72
2022/01/17 07:53:26;;;;;;;21.92;14.25;;;;;;;;;;5097213;28;20028;-72
2022/01/17 07:55:52;;;;;;;21.77;14.63;;;;;;;;;;5096549;28;20138;-72
2022/01/17 07:58:19;;;;;;;18.63;13.18;;;;;;;;;;5097102;28;20059;-72
2022/01/17 08:00:45;;;;;;;18.85;12.95;;;;;;;;;;5097020;28;20032;-72
2022/01/17 08:03:11;;;;;;;16.48;11.52;;;;;;;;;;5096339;28;20418;-72
2022/01/17 08:05:37;;;;;;;15.50;10.43;;;;;;;;;;5096175;28;20047;-72
2022/01/17 08:08:03;;;;;;;16.73;11.50;;;;;;;;;;5096886;28;20032;-72
2022/01/17 08:10:30;;;;;;;17.27;11.45;;;;;;;;;;5096632;28;20032;-72
2022/01/17 08:12:56;;;;;;;17.80;12.05;;;;;;;;;;5091768;28;20040;-72
2022/01/17 08:15:22;;;;;;;15.50;10.98;;;;;;;;;;5076382;28;20036;-72
2022/01/17 08:17:48;;;;;;;16.33;10.85;;;;;;;;;;5076376;28;20029;-72
2022/01/17 08:20:16;;;;;;;13.85;10.32;;;;;;;;;;5076363;28;20044;-72
2022/01/17 08:22:43;;;;;;;23.77;14.45;;;;;;;;;;5076174;28;20115;-72
2022/01/17 08:25:10;;;;;;;20.92;14.70;;;;;;;;;;5075856;28;20035;-72
2022/01/17 08:27:36;;;;;;;21.70;14.77;;;;;;;;;;5076366;28;20040;-72
2022/01/17 08:30:02;;;;;;;21.70;14.65;;;;;;;;;;5076729;28;20029;-72
2022/01/17 08:32:31;;;;;;;23.52;14.38;;;;;;;;;;5076507;28;20036;-72
2022/01/17 08:34:57;;;;;;;20.60;13.35;;;;;;;;;;5075528;28;20040;-72
2022/01/17 08:37:24;;;;;;;21.75;13.55;;;;;;;;;;5076243;28;20040;-73
2022/01/17 08:39:50;;;;;;;35.55;15.55;;;;;;;;;;5074002;28;20052;-71
2022/01/17 08:42:16;;;;;;;17.27;13.07;;;;;;;;;;5072648;28;20064;-71
2022/01/17 08:44:49;;;;;;;26.02;12.82;;;;;;;;;;5076300;28;20040;-71
2022/01/17 08:47:16;;;;;;;17.55;10.02;;;;;;;;;;5076747;28;20040;-74
2022/01/17 08:49:42;;;;;;;27.70;13.10;;;;;;;;;;5076013;28;20475;-75
2022/01/17 08:52:09;;;;;;;16.58;8.70;;;;;;;;;;5074451;28;20533;-74
2022/01/17 08:54:35;;;;;;;15.48;8.52;;;;;;;;;;5073180;28;20043;-74
2022/01/17 08:57:02;;;;;;;12.05;8.38;;;;;;;;;;5075189;28;20036;-74
2022/01/17 08:59:31;;;;;;;13.27;9.30;;;;;;;;;;5075035;28;20040;-73
2022/01/17 09:01:58;;;;;;;20.50;12.70;;;;;;;;;;5075475;28;20042;-73
2022/01/17 09:04:24;;;;;;;18.65;11.60;;;;;;;;;;5074829;28;20040;-74
2022/01/17 09:06:50;;;;;;;36.30;19.75;;;;;;;;;;5074852;28;20067;-73
2022/01/17 09:09:19;;;;;;;26.00;15.23;;;;;;;;;;5075588;28;20044;-74
2022/01/17 09:11:46;;;;;;;26.75;15.20;;;;;;;;;;5075457;28;20047;-73
2022/01/17 09:14:12;;;;;;;29.83;17.42;;;;;;;;;;5075007;28;20052;-73
2022/01/17 09:16:38;;;;;;;19.85;12.63;;;;;;;;;;5075623;28;20145;-73
2022/01/17 09:19:06;;;;;;;19.33;13.05;;;;;;;;;;5075738;28;20048;-73
2022/01/17 09:21:32;;;;;;;15.52;10.77;;;;;;;;;;5075492;28;20031;-73
2022/01/17 09:23:59;;;;;;;18.90;13.35;;;;;;;;;;5075352;28;20040;-74
2022/01/17 09:26:26;;;;;;;23.25;16.45;;;;;;;;;;5074907;28;20086;-74
2022/01/17 09:28:53;;;;;;;17.90;12.90;;;;;;;;;;5074825;28;20120;-74
2022/01/17 09:31:19;;;;;;;19.75;12.15;;;;;;;;;;5073501;28;20108;-74
2022/01/17 09:33:45;;;;;;;21.65;14.05;;;;;;;;;;5073056;28;20487;-74
2022/01/17 09:36:11;;;;;;;16.88;12.23;;;;;;;;;;5074806;28;20440;-74
2022/01/17 09:38:37;;;;;;;20.42;12.38;;;;;;;;;;5074659;28;20037;-74
2022/01/17 09:41:04;;;;;;;24.25;14.57;;;;;;;;;;5074975;28;20033;-74
2022/01/17 09:43:30;;;;;;;19.65;14.82;;;;;;;;;;5074720;28;20036;-74
2022/01/17 09:45:57;;;;;;;22.05;14.63;;;;;;;;;;5074130;28;20040;-74
2022/01/17 09:48:34;;;;;;;21.00;15.05;;;;;;;;;;5074919;28;20040;-74
2022/01/17 09:51:04;;;;;;;19.23;12.68;;;;;;;;;;5074007;28;20040;-74
2022/01/17 09:53:34;;;;;;;17.92;11.93;;;;;;;;;;5074033;28;20345;-74
2022/01/17 09:56:03;;;;;;;20.23;13.10;;;;;;;;;;5074799;28;20051;-74
2022/01/17 09:58:31;;;;;;;18.25;12.80;;;;;;;;;;5074514;28;20032;-73
2022/01/17 10:00:59;;;;;;;17.95;11.88;;;;;;;;;;5073954;28;20032;-74
2022/01/17 10:03:25;;;;;;;17.77;13.20;;;;;;;;;;5072603;28;20418;-73
2022/01/17 10:05:52;;;;;;;18.80;13.50;;;;;;;;;;5074133;28;20162;-73
2022/01/17 10:08:20;;;;;;;22.45;13.43;;;;;;;;;;5074455;28;20036;-73
2022/01/17 10:11:01;;;;;;;17.38;11.75;;;;;;;;;;5074558;28;20040;-73
2022/01/17 10:13:35;;;;;;;19.90;11.60;;;;;;;;;;5073971;28;20047;-74
2022/01/17 10:16:06;;;;;;;15.55;10.63;;;;;;;;;;5073854;28;20048;-74
2022/01/17 10:18:39;;;;;;;16.27;11.63;;;;;;;;;;5074185;28;20044;-74
2022/01/17 10:21:20;;;;;;;19.08;12.05;;;;;;;;;;5074669;28;20044;-74
2022/01/17 10:37:10;;;;;;;14.20;9.80;;;;;;;;;;5073403;28;20110;-73
2022/01/17 10:39:37;;;;;;;14.63;9.50;;;;;;;;;;5074189;28;20046;-73
2022/01/17 10:42:22;;;;;;;13.65;9.65;;;;;;;;;;5073868;28;20028;-74
2022/01/17 10:44:48;;;;;;;14.73;9.40;;;;;;;;;;5071680;28;20078;-74
2022/01/17 10:47:19;;;;;;;13.30;7.93;;;;;;;;;;5066011;28;20037;-75
2022/01/17 10:49:56;;;;;;;10.88;7.60;;;;;;;;;;5084910;28;20043;-73
2022/01/17 10:52:36;;;;;;;11.85;7.72;;;;;;;;;;5093540;28;20077;-73
2022/01/17 10:55:05;;;;;;;12.55;8.70;;;;;;;;;;5093920;28;20039;-73
2022/01/17 10:57:36;;;;;;;13.10;8.23;;;;;;;;;;5093948;28;20032;-73
2022/01/17 11:00:04;;;;;;;12.70;8.52;;;;;;;;;;5093760;28;20050;-73
2022/01/17 11:02:30;;;;;;;9.70;7.13;;;;;;;;;;5085142;28;20458;-75
2022/01/17 11:04:56;;;;;;;9.95;6.25;;;;;;;;;;5052824;28;20480;-73
2022/01/17 11:07:22;;;;;;;12.63;7.07;;;;;;;;;;5057492;28;20038;-71
2022/01/17 11:09:49;;;;;;;11.65;8.48;;;;;;;;;;5070942;28;20047;-72
2022/01/17 11:12:17;;;;;;;11.80;8.13;;;;;;;;;;5071815;28;20036;-72
2022/01/17 11:14:44;;;;;;;10.23;7.68;;;;;;;;;;5070788;28;20044;-72
2022/01/17 11:17:38;;;;;;;12.30;8.65;;;;;;;;;;5072773;28;20566;-72
2022/01/17 11:20:07;;;;;;;14.52;8.50;;;;;;;;;;5075359;28;20040;-72
2022/01/17 11:22:34;;;;;;;11.45;8.32;;;;;;;;;;5075775;28;20028;-72
2022/01/17 11:25:01;;;;;;;10.18;7.45;;;;;;;;;;5076597;28;20040;-72
2022/01/17 11:27:27;;;;;;;10.02;7.55;;;;;;;;;;5075943;28;20037;-72
2022/01/17 11:29:55;;;;;;;11.02;8.05;;;;;;;;;;5077057;28;20058;-72
2022/01/17 11:32:22;;;;;;;14.05;8.63;;;;;;;;;;5074953;28;20036;-72
2022/01/17 11:34:49;;;;;;;10.52;7.68;;;;;;;;;;5076137;28;20119;-73
2022/01/17 11:37:15;;;;;;;11.68;7.82;;;;;;;;;;5076015;28;20043;-72
2022/01/17 11:39:48;;;;;;;10.00;7.28;;;;;;;;;;5075983;28;20112;-72
2022/01/17 11:42:31;;;;;;;14.60;9.25;;;;;;;;;;5076444;28;20036;-72
2022/01/17 11:44:57;;;;;;;12.38;8.05;;;;;;;;;;5070785;28;20174;-72
2022/01/17 11:47:59;;;;;;;9.00;6.93;;;;;;;;;;5075936;28;20044;-72
2022/01/17 11:50:28;;;;;;;9.60;6.22;;;;;;;;;;5012582;28;20038;-70
2022/01/17 11:52:55;;;;;;;11.18;7.65;;;;;;;;;;5065057;28;20040;-71
2022/01/17 11:55:42;;;;;;;10.77;6.82;;;;;;;;;;5074973;28;20187;-71
2022/01/17 11:58:25;;;;;;;8.35;6.20;;;;;;;;;;5075841;28;20036;-71
2022/01/17 12:00:57;;;;;;;10.05;6.22;;;;;;;;;;5076087;28;20083;-71
2022/01/17 12:03:25;;;;;;;12.35;7.10;;;;;;;;;;5075768;28;20119;-71
2022/01/17 12:05:52;;;;;;;12.20;7.35;;;;;;;;;;5075639;28;20043;-71
2022/01/17 12:08:20;;;;;;;8.18;6.00;;;;;;;;;;5075908;28;20093;-71
2022/01/17 12:11:07;;;;;;;11.07;6.88;;;;;;;;;;5076243;28;20487;-71
2022/01/17 12:13:39;;;;;;;19.00;6.70;;;;;;;;;;5073376;28;20088;-71
2022/01/17 12:16:11;;;;;;;10.75;6.72;;;;;;;;;;5072470;28;20107;-71
2022/01/17 12:18:39;;;;;;;13.98;7.05;;;;;;;;;;5074341;28;20040;-71
2022/01/17 12:21:32;;;;;;;10.52;6.43;;;;;;;;;;5075146;28;20032;-71
2022/01/17 12:24:25;;;;;;;10.50;6.57;;;;;;;;;;5073369;28;20082;-71
2022/01/17 12:26:54;;;;;;;9.52;6.22;;;;;;;;;;5075193;28;20033;-72
2022/01/17 12:29:40;;;;;;;9.63;6.38;;;;;;;;;;5075329;28;20083;-72
2022/01/17 12:32:07;;;;;;;10.00;7.03;;;;;;;;;;5063480;28;20028;-71
2022/01/17 12:34:44;;;;;;;11.45;7.43;;;;;;;;;;5075558;28;20040;-71
2022/01/17 12:37:28;;;;;;;9.52;6.35;;;;;;;;;;5075490;28;20036;-71
2022/01/17 12:40:07;;;;;;;10.35;7.05;;;;;;;;;;5075252;28;20045;-72
2022/01/17 12:42:33;;;;;;;8.30;6.15;;;;;;;;;;5075548;28;20040;-72
2022/01/17 12:45:02;;;;;;;8.48;6.20;;;;;;;;;;5074168;28;20499;-72
2022/01/17 12:47:33;;;;;;;7.18;5.03;;;;;;;;;;5072589;28;20586;-72
2022/01/17 12:50:03;;;;;;;11.93;6.40;;;;;;;;;;5075110;28;20111;-72
2022/01/17 12:52:30;;;;;;;8.05;5.07;;;;;;;;;;5066992;28;20188;-74
2022/01/17 12:54:56;;;;;;;9.20;5.72;;;;;;;;;;5092575;28;20044;-73
2022/01/17 12:57:24;;;;;;;9.60;6.03;;;;;;;;;;5095516;28;20036;-73
2022/01/17 12:59:50;;;;;;;9.75;6.15;;;;;;;;;;5094522;28;20395;-74
2022/01/17 13:02:20;;;;;;;7.93;6.22;;;;;;;;;;5095044;28;20036;-73
2022/01/17 13:04:46;;;;;;;9.93;5.75;;;;;;;;;;5095193;28;20541;-73
2022/01/17 13:07:14;;;;;;;7.65;5.32;;;;;;;;;;5095036;28;20036;-73
2022/01/17 13:09:40;;;;;;;8.23;6.00;;;;;;;;;;5095286;28;20512;-73
2022/01/17 13:12:09;;;;;;;9.27;6.20;;;;;;;;;;5095025;28;20440;-74
2022/01/17 13:14:35;;;;;;;10.55;5.57;;;;;;;;;;5094703;28;20054;-74
2022/01/17 13:17:06;;;;;;;10.70;7.50;;;;;;;;;;5094583;28;20063;-74
2022/01/17 13:19:35;;;;;;;12.52;7.95;;;;;;;;;;5094345;28;20447;-74
2022/01/17 13:22:01;;;;;;;33.17;19.25;;;;;;;;;;5095077;28;20059;-72
2022/01/17 13:27:09;;;;;;;10.43;7.10;;;;;;;;;;5093646;28;20366;-73
2022/01/17 13:29:39;;;;;;;11.75;7.38;;;;;;;;;;5093687;28;20035;-73
2022/01/17 13:32:06;;;;;;;9.32;6.53;;;;;;;;;;5094411;28;20043;-73
2022/01/17 13:34:32;;;;;;;9.35;6.80;;;;;;;;;;5094000;28;20039;-73
2022/01/17 13:37:02;;;;;;;13.30;9.00;;;;;;;;;;5094796;28;20036;-73
2022/01/17 13:39:29;;;;;;;16.88;11.48;;;;;;;;;;5094159;28;20075;-72
2022/01/17 13:41:57;;;;;;;10.57;6.65;;;;;;;;;;5091292;28;20600;-74
2022/01/17 13:44:25;;;;;;;11.20;8.32;;;;;;;;;;5093341;28;20036;-74
2022/01/17 13:47:11;;;;;;;12.77;8.57;;;;;;;;;;5094247;28;20036;-74
2022/01/17 13:49:40;;;;;;;15.68;9.63;;;;;;;;;;5094012;28;20062;-73
2022/01/17 13:52:06;;;;;;;12.18;8.85;;;;;;;;;;5094447;28;20347;-74
2022/01/17 13:54:35;;;;;;;11.20;7.40;;;;;;;;;;5094188;28;20151;-74
2022/01/17 13:57:03;;;;;;;9.68;7.05;;;;;;;;;;5094603;28;20478;-74
2022/01/17 13:59:29;;;;;;;10.77;7.80;;;;;;;;;;5094787;28;20091;-75
2022/01/17 14:01:55;;;;;;;12.48;8.30;;;;;;;;;;5075886;28;20033;-75
2022/01/17 14:04:22;;;;;;;14.10;8.77;;;;;;;;;;5057183;28;20463;-74
2022/01/17 14:06:48;;;;;;;12.82;8.82;;;;;;;;;;5053814;28;20044;-74
2022/01/17 14:09:15;;;;;;;14.80;8.80;;;;;;;;;;5053567;28;20036;-74
2022/01/17 14:11:45;;;;;;;16.88;9.63;;;;;;;;;;5054155;28;20037;-73
2022/01/17 14:14:12;;;;;;;15.48;9.57;;;;;;;;;;5053472;28;20045;-74
2022/01/17 14:16:42;;;;;;;15.27;10.80;;;;;;;;;;5052874;28;20041;-73
2022/01/17 14:19:12;;;;;;;15.00;10.40;;;;;;;;;;5053728;28;20115;-73
2022/01/17 14:21:42;;;;;;;18.60;10.90;;;;;;;;;;5053801;28;20108;-73
2022/01/17 14:24:14;;;;;;;16.63;11.00;;;;;;;;;;5053251;28;20079;-73
2022/01/17 14:26:43;;;;;;;14.90;9.73;;;;;;;;;;5053635;28;20484;-73
2022/01/17 14:29:10;;;;;;;15.63;10.85;;;;;;;;;;5053513;28;20118;-73
2022/01/17 14:31:37;;;;;;;13.77;10.40;;;;;;;;;;5051126;28;20476;-74
2022/01/17 14:34:14;;;;;;;16.73;10.02;;;;;;;;;;5053528;28;20082;-74
2022/01/17 14:36:41;;;;;;;17.23;10.00;;;;;;;;;;5052866;28;20515;-73
2022/01/17 14:39:07;;;;;;;17.10;10.85;;;;;;;;;;5053710;28;20045;-73
2022/01/17 14:41:38;;;;;;;15.98;10.07;;;;;;;;;;5053691;28;20089;-73
2022/01/17 14:44:07;;;;;;;16.52;10.02;;;;;;;;;;5053413;28;20087;-73
2022/01/17 14:46:34;;;;;;;17.02;10.43;;;;;;;;;;5053185;28;20029;-73
2022/01/17 14:49:00;;;;;;;15.73;10.40;;;;;;;;;;5053599;28;20041;-73
2022/01/17 14:51:28;;;;;;;15.32;9.82;;;;;;;;;;5054018;28;20033;-73
2022/01/17 14:53:58;;;;;;;18.63;11.18;;;;;;;;;;5052657;28;20029;-73
2022/01/17 15:04:38;;;;;;;17.25;11.57;;;;;;;;;;5057266;28;20037;-74